Time;durP1;ratioP1;P1;durP2;ratioP2;P2;SDS_P1;SDS_P2;PMS_P1;PMS_P2;Temp;Humidity;BMP_temperature;BMP_pressure;BME280_temperature;BME280_humidity;BME280_pressure;Samples;Min_cycle;Max_cycle;Signal;HPM_P1;HPM_P2
2021/05/12 00:02:17;;;;;;;6.15;4.03;;;;;;;14.80;57.63;99516.27;1712099;83;21135;-41
2021/05/12 00:04:43;;;;;;;7.62;4.25;;;;;;;14.78;57.60;99514.50;1686012;83;21079;-41
2021/05/12 00:07:10;;;;;;;7.80;4.20;;;;;;;14.75;57.72;99511.17;1685430;83;22774;-41
2021/05/12 00:09:37;;;;;;;6.60;4.25;;;;;;;14.70;57.97;99512.33;1712058;83;21364;-41
2021/05/12 00:12:04;;;;;;;6.37;3.85;;;;;;;14.69;58.10;99517.58;1685605;83;21130;-41
2021/05/12 00:14:31;;;;;;;6.95;4.10;;;;;;;14.69;58.00;99519.53;1685582;83;21770;-41
2021/05/12 00:17:04;;;;;;;6.62;3.92;;;;;;;14.69;58.00;99523.04;1712080;83;21043;-41
2021/05/12 00:19:28;;;;;;;7.67;4.08;;;;;;;14.66;57.66;99538.82;1711054;83;21106;-41
2021/05/12 00:24:40;;;;;;;10.03;3.55;;;;;;;14.57;57.60;99550.63;1712500;83;21036;-41
2021/05/12 00:27:07;;;;;;;;;;;;;;;14.48;57.18;99543.37;1713933;83;21000;-41
2021/05/12 00:29:33;;;;;;;7.97;2.90;;;;;;;14.40;56.62;99549.17;1712008;83;20663;-41
2021/05/12 00:32:00;;;;;;;2.98;2.60;;;;;;;14.26;56.75;99548.47;1712208;83;21078;-41
2021/05/12 00:34:26;;;;;;;6.33;3.10;;;;;;;14.23;56.65;99543.79;1712112;83;21609;-41
2021/05/12 00:36:52;;;;;;;5.70;2.70;;;;;;;14.16;56.37;99547.23;1685330;83;21122;-41
2021/05/12 00:39:19;;;;;;;8.08;3.15;;;;;;;14.10;55.87;99551.47;1712184;83;21581;-41
2021/05/12 00:41:45;;;;;;;6.72;2.85;;;;;;;14.06;55.63;99557.48;1685544;83;21061;-41
2021/05/12 00:44:20;;;;;;;6.45;2.47;;;;;;;13.99;55.20;99562.86;1681086;83;23353;-41
2021/05/12 00:46:49;;;;;;;8.03;2.05;;;;;;;13.92;55.15;99562.23;1685450;83;21063;-40
2021/05/12 00:49:15;;;;;;;4.92;2.20;;;;;;;13.84;54.86;99560.63;1665398;85;21327;-41
2021/05/12 00:51:43;;;;;;;3.98;1.72;;;;;;;13.77;54.68;99558.39;1683437;85;21071;-41
2021/05/12 00:54:11;;;;;;;3.22;1.98;;;;;;;13.69;54.55;99556.77;1683579;85;21107;-41
2021/05/12 00:56:40;;;;;;;2.85;1.95;;;;;;;13.62;54.63;99564.28;1683372;85;21218;-41
2021/05/12 00:59:07;;;;;;;2.58;2.00;;;;;;;13.52;54.75;99556.78;1657733;85;21331;-41
2021/05/12 01:01:34;;;;;;;6.10;2.00;;;;;;;13.46;54.75;99556.91;1683425;85;20951;-41
2021/05/12 01:04:01;;;;;;;4.97;2.00;;;;;;;13.36;54.68;99548.84;1683589;85;20988;-41
2021/05/12 01:06:31;;;;;;;1.75;1.52;;;;;;;13.28;54.76;99552.65;1683487;85;21062;-41
2021/05/12 01:08:58;;;;;;;5.42;2.00;;;;;;;13.19;54.65;99552.16;1657101;85;21137;-41
2021/05/12 01:11:24;;;;;;;2.10;1.82;;;;;;;13.12;54.59;99551.31;1683497;85;21028;-41
2021/05/12 01:13:51;;;;;;;2.60;1.95;;;;;;;13.03;54.90;99554.27;1683436;85;21047;-41
2021/05/12 01:16:18;;;;;;;2.35;1.67;;;;;;;12.96;54.97;99563.15;1683499;85;21011;-41
2021/05/12 01:18:44;;;;;;;2.50;1.60;;;;;;;12.90;54.63;99558.39;1698585;83;21038;-41
2021/05/12 01:21:11;;;;;;;5.20;1.55;;;;;;;12.83;54.44;99554.23;1699668;84;21245;-41
2021/05/12 01:23:44;;;;;;;5.30;1.72;;;;;;;12.74;54.39;99543.61;1671627;84;21293;-41
2021/05/12 01:26:15;;;;;;;2.58;1.60;;;;;;;12.68;54.39;99555.20;1699671;84;21595;-41
2021/05/12 01:28:44;;;;;;;5.17;1.87;;;;;;;12.59;54.49;99548.07;1699445;84;21086;-41
2021/05/12 01:31:18;;;;;;;2.27;1.70;;;;;;;12.51;54.39;99544.27;1699757;84;21580;-41
2021/05/12 01:33:45;;;;;;;2.85;1.82;;;;;;;12.44;54.24;99544.19;1695107;84;21007;-41
2021/05/12 01:36:11;;;;;;;3.22;1.80;;;;;;;12.36;54.51;99543.28;1707214;83;21027;-41
2021/05/12 01:38:40;;;;;;;2.80;1.77;;;;;;;12.32;54.88;99544.37;1747812;82;21091;-40
2021/05/12 01:41:07;;;;;;;2.37;1.47;;;;;;;12.28;55.01;99548.41;1747768;82;21118;-40
2021/05/12 01:43:34;;;;;;;2.37;1.60;;;;;;;12.22;55.22;99545.80;1749934;80;21062;-41
2021/05/12 01:46:01;;;;;;;2.33;1.40;;;;;;;12.18;55.33;99538.95;1773110;80;21580;-41
2021/05/12 01:48:28;;;;;;;3.33;1.65;;;;;;;12.14;55.61;99531.89;1758831;80;21032;-41
2021/05/12 01:50:54;;;;;;;5.47;1.60;;;;;;;12.11;55.90;99547.55;1715311;82;21036;-41
2021/05/12 01:53:21;;;;;;;2.58;1.80;;;;;;;12.05;56.22;99541.64;1715213;82;21166;-41
2021/05/12 01:55:48;;;;;;;2.62;1.90;;;;;;;12.00;56.47;99554.77;1736272;82;21067;-41
2021/05/12 01:58:15;;;;;;;2.87;1.90;;;;;;;11.94;56.66;99563.80;1736479;82;21518;-41
2021/05/12 02:00:44;;;;;;;2.60;2.00;;;;;;;11.86;56.73;99559.37;1736340;82;20940;-41
2021/05/12 02:03:11;;;;;;;4.00;1.87;;;;;;;11.78;56.50;99563.70;1736332;82;21553;-41
2021/05/12 02:05:39;;;;;;;6.03;1.85;;;;;;;11.69;56.11;99561.98;1740268;80;20996;-41
2021/05/12 02:08:09;;;;;;;3.42;1.90;;;;;;;11.58;55.60;99561.00;1742448;80;21300;-40
2021/05/12 02:10:37;;;;;;;3.75;1.90;;;;;;;11.51;55.37;99555.46;1742505;81;22082;-40
2021/05/12 02:13:03;;;;;;;2.30;1.95;;;;;;;11.40;55.24;99568.05;1742522;81;21019;-40
2021/05/12 02:15:30;;;;;;;4.83;2.22;;;;;;;11.34;55.55;99568.11;1742592;81;21572;-41
2021/05/12 02:17:56;;;;;;;3.40;1.85;;;;;;;11.28;55.63;99574.97;1742453;82;21019;-40
2021/05/12 02:20:26;;;;;;;2.72;1.80;;;;;;;11.24;55.71;99578.98;1742587;81;21035;-40
2021/05/12 02:22:53;;;;;;;5.15;1.92;;;;;;;11.20;55.96;99580.05;1732023;82;21796;-40
2021/05/12 02:25:19;;;;;;;4.42;2.12;;;;;;;11.14;56.05;99580.91;1742316;81;21095;-40
2021/05/12 02:27:45;;;;;;;3.27;1.80;;;;;;;11.09;56.14;99580.41;1737827;80;21023;-40
2021/05/12 02:30:13;;;;;;;2.08;1.87;;;;;;;11.06;56.34;99585.98;1773030;80;21071;-41
2021/05/12 02:32:40;;;;;;;2.30;2.10;;;;;;;10.98;56.15;99587.56;1773105;80;21616;-40
2021/05/12 02:35:08;;;;;;;2.12;1.77;;;;;;;10.94;56.22;99590.78;1773136;80;21095;-40
2021/05/12 02:37:35;;;;;;;5.35;2.20;;;;;;;10.88;56.45;99582.92;1706541;84;21610;-40
2021/05/12 02:40:08;;;;;;;2.72;1.82;;;;;;;10.84;56.87;99590.17;1773167;80;21007;-40
2021/05/12 02:42:35;;;;;;;3.77;2.00;;;;;;;10.79;57.01;99587.77;1706639;84;21020;-40
2021/05/12 02:45:02;;;;;;;4.05;2.00;;;;;;;10.73;57.07;99582.40;1773042;80;21834;-41
2021/05/12 02:47:28;;;;;;;3.15;1.72;;;;;;;10.70;57.32;99585.80;1773196;80;21086;-40
2021/05/12 02:49:55;;;;;;;2.30;2.10;;;;;;;10.67;57.43;99587.88;1743362;81;21019;-40
2021/05/12 02:52:21;;;;;;;2.40;2.20;;;;;;;10.61;57.62;99588.49;1763034;81;21491;-40
2021/05/12 02:54:48;;;;;;;2.72;2.15;;;;;;;10.57;57.43;99592.48;1763059;81;21043;-40
2021/05/12 02:57:14;;;;;;;2.22;1.90;;;;;;;10.59;57.50;99598.36;1772445;80;21040;-40
2021/05/12 02:59:40;;;;;;;3.02;2.33;;;;;;;10.59;57.60;99599.71;1773214;80;21097;-40
2021/05/12 03:02:07;;;;;;;2.33;2.00;;;;;;;10.58;57.75;99603.55;1684935;84;21050;-40
2021/05/12 03:04:33;;;;;;;3.55;1.85;;;;;;;10.55;57.63;99598.85;1773126;80;21019;-40
2021/05/12 03:06:59;;;;;;;2.62;2.00;;;;;;;10.55;57.79;99603.48;1751516;80;21071;-40
2021/05/12 03:09:26;;;;;;;5.00;2.25;;;;;;;10.54;57.84;99601.34;1706857;84;21578;-40
2021/05/12 03:11:53;;;;;;;3.77;2.00;;;;;;;10.52;58.06;99599.53;1773338;80;21026;-40
2021/05/12 03:14:19;;;;;;;2.33;1.70;;;;;;;10.50;57.68;99600.48;1706769;84;21572;-40
2021/05/12 03:16:45;;;;;;;3.17;1.62;;;;;;;10.51;57.88;99602.59;1773359;80;20964;-40
2021/05/12 03:19:12;;;;;;;3.35;1.75;;;;;;;10.53;58.04;99602.47;1773135;80;21593;-40
2021/05/12 03:21:39;;;;;;;4.42;1.50;;;;;;;10.59;57.67;99601.06;1773261;80;20944;-41
2021/05/12 03:24:07;;;;;;;2.12;1.45;;;;;;;10.62;57.67;99598.99;1706843;84;21972;-41
2021/05/12 03:26:33;;;;;;;2.30;1.70;;;;;;;10.62;57.64;99607.13;1773019;80;21060;-41
2021/05/12 03:29:00;;;;;;;4.10;1.62;;;;;;;10.66;57.53;99599.86;1706872;84;21306;-41
2021/05/12 03:31:27;;;;;;;3.62;1.60;;;;;;;10.67;57.53;99606.06;1773265;80;20924;-41
2021/05/12 03:33:56;;;;;;;1.95;1.35;;;;;;;10.67;57.47;99610.92;1773028;80;21892;-41
2021/05/12 03:36:23;;;;;;;4.22;1.52;;;;;;;10.71;57.43;99613.70;1686428;84;22623;-41
2021/05/12 03:38:50;;;;;;;2.85;1.40;;;;;;;10.37;57.77;99555.62;1773021;80;21603;-41
2021/05/12 03:41:16;;;;;;;1.57;1.32;;;;;;;10.72;57.48;99605.80;1706843;84;20999;-41
2021/05/12 03:43:42;;;;;;;1.85;1.30;;;;;;;10.75;57.47;99609.93;1773251;80;20979;-41
2021/05/12 03:46:09;;;;;;;2.15;1.27;;;;;;;10.79;57.33;99616.81;1684034;83;21019;-41
2021/05/12 03:48:35;;;;;;;2.72;1.50;;;;;;;10.83;57.22;99614.95;1724961;82;21934;-41
2021/05/12 03:51:03;;;;;;;2.30;1.30;;;;;;;10.85;57.09;99616.16;1715183;83;20995;-41
2021/05/12 03:53:29;;;;;;;1.40;1.20;;;;;;;10.88;56.92;99619.53;1715003;83;20971;-41
2021/05/12 03:55:55;;;;;;;3.15;1.30;;;;;;;10.93;56.70;99619.03;1714875;83;21051;-41
2021/05/12 03:58:22;;;;;;;1.50;1.40;;;;;;;10.94;56.69;99617.91;1715056;83;21094;-41
2021/05/12 04:00:48;;;;;;;1.50;1.00;;;;;;;10.99;56.87;99617.63;1715083;83;22042;-41
2021/05/12 04:05:32;;;;;;;3.30;1.00;;;;;;;11.11;56.39;99605.27;1855081;76;22565;-41
2021/05/12 04:07:59;;;;;;;2.08;1.20;;;;;;;11.04;56.62;99607.25;1794937;78;21662;-41
2021/05/12 04:10:25;;;;;;;1.92;1.10;;;;;;;11.08;56.46;99606.78;1794586;78;22750;-41
2021/05/12 04:12:52;;;;;;;1.52;1.10;;;;;;;11.10;56.13;99605.05;1828966;78;21005;-41
2021/05/12 04:15:19;;;;;;;2.52;1.05;;;;;;;11.15;56.32;99604.77;1794579;78;21591;-41
2021/05/12 04:17:45;;;;;;;1.37;1.00;;;;;;;11.18;55.96;99602.72;1826945;77;20978;-41
2021/05/12 04:20:15;;;;;;;2.15;1.07;;;;;;;11.23;56.11;99601.07;1825371;78;20927;-41
2021/05/12 04:22:42;;;;;;;;;;;;;;;11.25;55.33;99598.77;1828005;77;21624;-41
2021/05/12 04:25:14;;;;;;;1.37;0.98;;;;;;;11.29;55.48;99606.41;1858348;77;20154;-41
2021/05/12 04:27:40;;;;;;;3.70;1.30;;;;;;;11.26;56.30;99597.63;1858734;77;21543;-41
2021/05/12 04:30:12;;;;;;;1.80;1.15;;;;;;;11.35;55.50;99604.98;1859066;77;20998;-41
2021/05/12 04:32:40;;;;;;;5.05;1.17;;;;;;;11.40;55.11;99597.91;1859043;77;21025;-41
2021/05/12 04:35:09;;;;;;;1.47;1.00;;;;;;;11.43;54.90;99594.46;1789269;78;23348;-41
2021/05/12 04:37:35;;;;;;;0.90;0.80;;;;;;;11.45;55.02;99600.33;1788752;80;21016;-41
2021/05/12 04:40:03;;;;;;;2.85;1.10;;;;;;;11.49;54.95;99594.96;1789047;80;21552;-41
2021/05/12 04:42:29;;;;;;;2.77;1.00;;;;;;;11.53;54.67;99599.31;1821367;78;20971;-41
2021/05/12 04:44:56;;;;;;;2.85;1.25;;;;;;;11.57;54.84;99598.80;1788970;80;21619;-41
2021/05/12 04:47:22;;;;;;;1.67;0.90;;;;;;;11.65;55.07;99608.67;1821322;78;21033;-41
2021/05/12 04:49:48;;;;;;;4.33;1.20;;;;;;;11.74;54.61;99610.61;1759322;78;20953;-41
2021/05/12 04:52:15;;;;;;;2.25;1.00;;;;;;;11.80;53.74;99615.17;1780304;80;21558;-41
2021/05/12 04:54:42;;;;;;;4.05;0.90;;;;;;;11.83;53.80;99610.94;1780344;80;20991;-41
2021/05/12 04:57:08;;;;;;;1.20;0.93;;;;;;;11.85;54.10;99601.86;1780449;79;21003;-41
2021/05/12 04:59:35;;;;;;;1.60;0.85;;;;;;;11.90;53.87;99601.56;1780299;80;21805;-41
2021/05/12 05:02:04;;;;;;;1.62;0.90;;;;;;;11.98;53.96;99599.96;1780372;79;20967;-41
2021/05/12 05:04:30;;;;;;;1.45;1.00;;;;;;;12.06;54.03;99598.13;1780281;79;20948;-41
2021/05/12 05:06:56;;;;;;;1.70;1.10;;;;;;;12.14;54.09;99600.62;1784573;78;20955;-41
2021/05/12 05:09:23;;;;;;;2.67;1.10;;;;;;;12.20;53.73;99597.00;1726488;81;21018;-41
2021/05/12 05:11:49;;;;;;;2.67;1.42;;;;;;;12.22;53.55;99600.73;1768942;80;21125;-41
2021/05/12 05:14:16;;;;;;;2.75;1.20;;;;;;;12.23;53.30;99599.59;1788994;79;21015;-41
2021/05/12 05:16:42;;;;;;;3.22;1.10;;;;;;;12.23;53.21;99605.81;1788450;79;20998;-41
2021/05/12 05:19:08;;;;;;;1.60;1.10;;;;;;;12.26;53.48;99603.70;1788540;79;21039;-41
2021/05/12 05:21:35;;;;;;;1.07;0.90;;;;;;;12.29;53.45;99596.77;1788405;79;20952;-41
2021/05/12 05:24:01;;;;;;;5.53;1.30;;;;;;;12.37;53.51;99606.03;1788531;80;21116;-41
2021/05/12 05:26:28;;;;;;;4.00;1.30;;;;;;;12.42;52.57;99593.48;1795422;79;20978;-41
2021/05/12 05:28:54;;;;;;;1.90;1.30;;;;;;;12.44;52.62;99598.56;1773532;79;21912;-41
2021/05/12 05:31:21;;;;;;;2.67;1.30;;;;;;;12.48;52.91;99604.84;1763919;81;20927;-41
2021/05/12 05:34:06;;;;;;;2.50;1.20;;;;;;;12.53;52.56;99608.03;1764128;81;21121;-41
2021/05/12 05:36:50;;;;;;;5.97;1.35;;;;;;;12.52;52.89;99592.86;1763928;81;21078;-41
2021/05/12 05:39:36;;;;;;;4.17;1.50;;;;;;;12.57;52.57;99601.28;1764005;81;20971;-41
2021/05/12 05:42:21;;;;;;;2.25;1.32;;;;;;;12.54;52.33;99597.91;1764082;81;21051;-41
2021/05/12 05:45:08;;;;;;;2.10;1.20;;;;;;;12.61;52.81;99590.66;1763930;81;21581;-41
2021/05/12 05:47:53;;;;;;;1.77;1.20;;;;;;;12.70;52.38;99590.95;1768832;79;21050;-41
2021/05/12 05:50:38;;;;;;;1.57;1.10;;;;;;;12.78;52.51;99596.72;1795449;79;21071;-41
2021/05/12 05:53:23;;;;;;;4.65;1.30;;;;;;;12.83;51.99;99592.33;1795325;79;20939;-41
2021/05/12 05:56:08;;;;;;;2.25;1.42;;;;;;;12.86;52.26;99597.80;1795395;79;21593;-41
2021/05/12 05:58:52;;;;;;;3.67;1.17;;;;;;;12.93;51.97;99594.38;1763721;79;21110;-41
2021/05/12 06:01:37;;;;;;;5.05;1.10;;;;;;;12.98;51.75;99603.58;1787859;78;21564;-41
2021/05/12 06:04:04;;;;;;;4.17;1.40;;;;;;;12.99;51.47;99599.14;1820561;78;21477;-41
2021/05/12 06:06:49;;;;;;;3.12;1.50;;;;;;;13.07;51.16;99595.34;1820680;78;20943;-41
2021/05/12 06:09:33;;;;;;;2.75;1.30;;;;;;;13.14;51.43;99596.63;1789001;78;20955;-42
2021/05/12 06:12:18;;;;;;;2.15;1.42;;;;;;;13.24;51.02;99594.03;1820817;78;21078;-41
2021/05/12 06:15:06;;;;;;;4.25;1.40;;;;;;;13.34;50.97;99589.29;1792135;78;21011;-42
2021/05/12 06:17:50;;;;;;;3.60;1.32;;;;;;;13.44;50.65;99597.37;1804570;78;21161;-42
2021/05/12 06:20:35;;;;;;;3.17;1.60;;;;;;;13.49;51.20;99593.73;1757459;80;21072;-42
2021/05/12 06:23:20;;;;;;;1.92;1.30;;;;;;;13.49;50.05;99578.77;1788391;80;21062;-42
2021/05/12 06:26:13;;;;;;;2.60;1.20;;;;;;;13.45;50.22;99594.86;1820725;78;20942;-42
2021/05/12 06:28:52;;;;;;;1.85;1.30;;;;;;;13.46;51.10;99593.68;1788437;78;20994;-42
2021/05/12 06:31:37;;;;;;;3.35;1.57;;;;;;;13.60;50.75;99597.16;1820715;78;21148;-42
2021/05/12 06:34:23;;;;;;;2.33;1.37;;;;;;;13.75;50.46;99601.56;1755817;80;20959;-42
2021/05/12 06:37:08;;;;;;;4.47;1.50;;;;;;;13.82;50.40;99594.84;1820700;78;21022;-42
2021/05/12 06:39:52;;;;;;;4.15;1.70;;;;;;;13.91;50.89;99587.13;1786731;80;20955;-42
2021/05/12 06:42:19;;;;;;;4.25;1.47;;;;;;;13.98;50.05;99580.39;1788768;78;21094;-42
2021/05/12 06:44:46;;;;;;;3.42;1.30;;;;;;;14.06;49.47;99574.41;1785801;79;22757;-42
2021/05/12 06:47:12;;;;;;;4.83;1.50;;;;;;;14.19;49.90;99587.37;1810366;79;20983;-42
2021/05/12 06:49:39;;;;;;;4.28;1.40;;;;;;;14.24;49.44;99585.66;1787094;78;20981;-42
2021/05/12 06:52:05;;;;;;;4.03;1.60;;;;;;;14.24;49.18;99588.38;1757980;80;21042;-42
2021/05/12 06:54:32;;;;;;;2.58;1.80;;;;;;;14.17;48.65;99565.74;1786873;80;21552;-42
2021/05/12 06:56:58;;;;;;;4.87;2.10;;;;;;;14.06;48.73;99571.11;1786927;80;21026;-42
2021/05/12 06:59:25;;;;;;;5.72;1.90;;;;;;;13.99;49.29;99584.66;1786900;80;21050;-42
2021/05/12 07:01:52;;;;;;;4.97;2.00;;;;;;;13.93;48.96;99591.06;1786806;80;21512;-42
2021/05/12 07:04:19;;;;;;;3.20;2.02;;;;;;;13.88;49.56;99595.50;1791044;80;21102;-42
2021/05/12 07:06:46;;;;;;;3.67;1.77;;;;;;;13.89;50.21;99586.74;1788465;79;20922;-42
2021/05/12 07:09:12;;;;;;;3.80;1.85;;;;;;;13.87;49.83;99578.93;1820637;78;21090;-42
2021/05/12 07:11:42;;;;;;;5.28;1.72;;;;;;;13.87;49.64;99584.95;1788387;80;21002;-42
2021/05/12 07:14:08;;;;;;;3.60;1.60;;;;;;;13.92;49.96;99568.27;1820872;78;20998;-42
2021/05/12 07:16:35;;;;;;;4.05;1.62;;;;;;;13.92;49.96;99568.27;1755933;80;21016;-42
2021/05/12 07:19:01;;;;;;;5.08;1.85;;;;;;;13.99;49.37;99577.84;1772205;80;21043;-42
2021/05/12 07:21:28;;;;;;;3.22;1.75;;;;;;;13.99;49.05;99574.37;1751359;81;21255;-42
2021/05/12 07:23:56;;;;;;;3.27;1.57;;;;;;;14.09;49.74;99560.80;1751122;81;20948;-42
2021/05/12 07:26:24;;;;;;;4.72;1.92;;;;;;;14.26;48.47;99564.83;1751291;81;20998;-42
2021/05/12 07:28:50;;;;;;;3.27;1.67;;;;;;;14.45;48.95;99566.55;1749460;81;20999;-42
2021/05/12 07:31:19;;;;;;;6.65;1.65;;;;;;;14.56;47.49;99561.95;1756497;81;20984;-42
2021/05/12 07:33:45;;;;;;;5.62;1.70;;;;;;;14.56;47.82;99556.49;1756359;81;21030;-42
2021/05/12 07:36:12;;;;;;;2.92;1.45;;;;;;;14.59;47.65;99556.51;1756253;81;20968;-42
2021/05/12 07:38:38;;;;;;;5.08;1.60;;;;;;;14.74;47.60;99552.70;1756328;81;21003;-42
2021/05/12 07:41:05;;;;;;;7.47;1.65;;;;;;;15.00;46.84;99556.33;1736913;81;21717;-42
2021/05/12 07:43:32;;;;;;;4.17;1.50;;;;;;;15.22;45.94;99554.64;1756272;81;21035;-42
2021/05/12 07:46:00;;;;;;;4.72;1.50;;;;;;;15.37;45.33;99556.05;1736979;81;22540;-42
2021/05/12 07:48:26;;;;;;;7.92;1.82;;;;;;;15.34;44.79;99558.20;1754223;80;21039;-42
2021/05/12 07:50:53;;;;;;;6.45;1.35;;;;;;;15.16;45.48;99556.18;1751242;81;21022;-42
2021/05/12 07:53:20;;;;;;;3.02;1.30;;;;;;;15.06;46.05;99555.55;1772273;80;21564;-42
2021/05/12 07:55:46;;;;;;;4.22;1.20;;;;;;;14.98;45.88;99552.61;1782056;80;20963;-42
2021/05/12 07:58:13;;;;;;;2.80;1.00;;;;;;;15.03;45.87;99548.14;1782102;80;22139;-42
2021/05/12 08:00:42;;;;;;;2.37;1.32;;;;;;;15.23;45.86;99534.37;1782036;80;20963;-42
2021/05/12 08:03:07;;;;;;;4.58;1.20;;;;;;;15.42;45.69;99536.55;1782147;80;20963;-42
2021/05/12 08:05:34;;;;;;;4.78;1.45;;;;;;;15.54;44.61;99546.55;1782024;80;21104;-42
2021/05/12 08:08:00;;;;;;;4.15;1.20;;;;;;;15.25;44.34;99503.91;1782190;80;20971;-42
2021/05/12 08:10:27;;;;;;;1.87;1.17;;;;;;;15.54;45.08;99530.77;1782270;80;21779;-42
2021/05/12 08:12:53;;;;;;;2.25;1.02;;;;;;;15.59;43.70;99540.70;1782054;80;20995;-42
2021/05/12 08:15:21;;;;;;;3.30;1.02;;;;;;;15.59;44.09;99552.22;1782224;80;21007;-42
2021/05/12 08:17:47;;;;;;;3.40;0.93;;;;;;;15.61;44.86;99558.09;1734701;81;21819;-42
2021/05/12 08:20:14;;;;;;;4.03;0.80;;;;;;;15.58;43.49;99547.36;1753740;81;21045;-42
2021/05/12 08:22:40;;;;;;;2.95;0.95;;;;;;;15.52;44.52;99549.48;1753658;81;21073;-42
2021/05/12 08:25:10;;;;;;;3.60;0.90;;;;;;;15.45;44.64;99557.63;1753264;81;20994;-42
2021/05/12 08:27:38;;;;;;;1.70;1.00;;;;;;;15.41;44.34;99546.70;1753272;80;21020;-42
2021/05/12 08:30:08;;;;;;;1.92;1.00;;;;;;;15.36;44.38;99553.12;1721446;81;21256;-42
2021/05/12 08:32:35;;;;;;;3.22;0.88;;;;;;;15.30;43.95;99539.66;1751214;81;21043;-42
2021/05/12 08:35:02;;;;;;;1.27;0.90;;;;;;;15.29;44.68;99553.11;1721308;81;21012;-42
2021/05/12 08:37:28;;;;;;;1.05;0.70;;;;;;;15.25;44.40;99545.50;1751086;81;21012;-42
2021/05/12 08:39:55;;;;;;;1.57;0.60;;;;;;;15.15;44.62;99546.42;1751223;81;21036;-42
2021/05/12 08:42:21;;;;;;;4.12;0.80;;;;;;;15.06;44.75;99543.27;1730692;81;21015;-42
2021/05/12 08:44:48;;;;;;;5.53;0.78;;;;;;;15.05;45.31;99545.04;1751202;81;21540;-42
2021/05/12 08:47:18;;;;;;;1.92;0.95;;;;;;;15.09;44.85;99544.46;1751326;81;21099;-42
2021/05/12 08:49:44;;;;;;;1.10;0.90;;;;;;;15.09;44.35;99547.98;1751317;81;21108;-42
2021/05/12 08:52:11;;;;;;;2.10;1.20;;;;;;;15.08;45.24;99542.31;1745785;81;21891;-42
2021/05/12 08:54:39;;;;;;;2.20;1.00;;;;;;;15.09;45.15;99539.78;1741436;81;21055;-42
2021/05/12 08:57:06;;;;;;;3.80;1.00;;;;;;;15.08;44.80;99543.67;1735897;81;21102;-40
2021/05/12 08:59:33;;;;;;;1.87;1.00;;;;;;;15.10;44.86;99536.47;1737085;81;21223;-40
2021/05/12 09:01:59;;;;;;;1.40;0.90;;;;;;;15.09;45.33;99541.16;1749241;81;20980;-41
2021/05/12 09:04:28;;;;;;;2.20;0.90;;;;;;;15.09;44.81;99537.64;1735671;82;20972;-41
2021/05/12 09:06:55;;;;;;;2.65;0.80;;;;;;;15.04;45.38;99530.60;1732882;82;21111;-41
2021/05/12 09:09:22;;;;;;;1.45;0.90;;;;;;;15.03;45.47;99530.39;1732143;81;21035;-41
2021/05/12 09:11:49;;;;;;;3.62;1.30;;;;;;;14.97;45.16;99531.92;1695134;82;21651;-42
2021/05/12 09:14:32;;;;;;;2.00;1.30;;;;;;;14.89;45.69;99530.92;1729535;82;21090;-42
2021/05/12 09:16:58;;;;;;;1.95;1.17;;;;;;;14.93;45.84;99529.77;1728766;82;21012;-42
2021/05/12 09:19:25;;;;;;;3.80;1.30;;;;;;;14.98;45.11;99523.16;1732935;82;21139;-42
2021/05/12 09:21:57;;;;;;;2.95;1.40;;;;;;;15.02;45.91;99520.63;1732451;82;21087;-42
2021/05/12 09:24:40;;;;;;;2.30;1.20;;;;;;;15.07;45.00;99520.84;1791190;80;21095;-42
2021/05/12 09:27:22;;;;;;;4.17;1.05;;;;;;;15.06;45.33;99526.88;1789075;78;22174;-42
2021/05/12 09:29:45;;;;;;;2.37;1.17;;;;;;;14.96;45.17;99524.89;1791383;80;21283;-42
2021/05/12 09:32:17;;;;;;;2.17;1.05;;;;;;;14.83;45.59;99522.31;1731746;81;21238;-42
2021/05/12 09:35:02;;;;;;;5.20;1.10;;;;;;;14.72;45.42;99520.11;1757929;80;21026;-42
2021/05/12 09:37:35;;;;;;;3.58;0.90;;;;;;;14.62;45.74;99523.59;1789479;80;21944;-42
2021/05/12 09:40:05;;;;;;;3.00;1.22;;;;;;;14.60;46.79;99513.64;1790589;80;20952;-42
2021/05/12 09:42:32;;;;;;;3.45;1.00;;;;;;;14.67;46.75;99517.75;1762797;80;20948;-42
2021/05/12 09:45:21;;;;;;;1.75;1.22;;;;;;;14.74;46.72;99510.39;1777339;80;21109;-42
2021/05/12 09:48:00;;;;;;;1.40;0.82;;;;;;;14.78;45.77;99515.86;1791116;80;21656;-42
2021/05/12 09:50:34;;;;;;;2.95;1.05;;;;;;;14.79;45.20;99511.97;1764441;80;21052;-42
2021/05/12 09:53:11;;;;;;;2.95;0.90;;;;;;;14.79;45.86;99509.24;1778342;80;21075;-42
2021/05/12 09:55:46;;;;;;;4.10;1.22;;;;;;;14.79;45.47;99513.34;1777040;80;21083;-42
2021/05/12 09:58:16;;;;;;;2.60;1.10;;;;;;;14.81;45.70;99511.59;1791955;80;21052;-42
2021/05/12 10:00:50;;;;;;;1.80;1.25;;;;;;;14.86;46.63;99516.69;1791276;80;20949;-42
2021/05/12 10:03:22;;;;;;;4.87;1.10;;;;;;;14.87;46.60;99501.27;1792146;80;21048;-42
2021/05/12 10:06:01;;;;;;;1.87;1.17;;;;;;;14.94;46.87;99504.04;1801303;78;21635;-42
2021/05/12 10:08:35;;;;;;;3.03;1.30;;;;;;;15.06;46.77;99498.22;1827973;78;21548;-42
2021/05/12 10:11:10;;;;;;;3.42;1.10;;;;;;;15.15;45.16;99508.80;1827780;78;21058;-42
2021/05/12 10:13:37;;;;;;;3.50;1.07;;;;;;;14.82;44.69;99462.06;1801990;78;21026;-42
2021/05/12 10:16:08;;;;;;;1.87;1.00;;;;;;;15.08;45.86;99506.81;1820214;78;21723;-42
2021/05/12 10:18:34;;;;;;;3.22;1.32;;;;;;;15.18;45.78;99504.70;1826590;78;20971;-42
2021/05/12 10:21:01;;;;;;;2.72;1.00;;;;;;;15.50;45.68;99502.02;1802381;78;20986;-42
2021/05/12 10:23:28;;;;;;;1.85;1.05;;;;;;;15.98;45.66;99494.83;1825125;78;21013;-42
2021/05/12 10:25:55;;;;;;;3.37;1.07;;;;;;;16.28;41.24;99489.71;1826648;78;20955;-42
2021/05/12 10:28:22;;;;;;;1.75;1.10;;;;;;;16.27;41.72;99487.36;1827499;78;21753;-42
2021/05/12 10:30:50;;;;;;;6.72;1.27;;;;;;;16.21;43.22;99489.74;1819135;78;20979;-42
2021/05/12 10:33:17;;;;;;;4.00;1.10;;;;;;;16.17;43.25;99500.50;1813281;78;21597;-42
2021/05/12 10:35:44;;;;;;;1.25;1.00;;;;;;;16.00;42.83;99490.55;1765418;79;21159;-42
2021/05/12 10:38:31;;;;;;;1.52;0.90;;;;;;;15.87;42.89;99496.81;1827410;78;20967;-42
2021/05/12 10:40:58;;;;;;;2.85;1.10;;;;;;;15.74;42.87;99492.30;1797026;78;21117;-42
2021/05/12 10:43:38;;;;;;;3.50;1.02;;;;;;;15.67;43.86;99492.31;1822680;78;21633;-42
2021/05/12 10:46:13;;;;;;;6.05;1.20;;;;;;;15.73;43.68;99494.08;1805056;78;21019;-42
2021/05/12 10:48:45;;;;;;;3.83;1.15;;;;;;;15.91;42.87;99490.16;1787474;78;21049;-42
2021/05/12 10:51:31;;;;;;;1.25;0.90;;;;;;;16.20;44.16;99479.19;1795973;78;20954;-42
2021/05/12 10:54:03;;;;;;;5.60;1.10;;;;;;;16.41;42.03;99480.52;1796881;78;21086;-42
2021/05/12 10:56:42;;;;;;;3.60;1.07;;;;;;;16.47;42.49;99489.27;1808550;79;21002;-42
2021/05/12 10:59:17;;;;;;;1.98;0.98;;;;;;;16.30;42.05;99495.58;1818941;78;20959;-42
2021/05/12 11:01:54;;;;;;;7.08;1.00;;;;;;;16.16;42.54;99491.51;1801936;78;21006;-42
2021/05/12 11:04:23;;;;;;;1.72;1.10;;;;;;;16.11;43.27;99497.37;1778049;78;21165;-42
2021/05/12 11:06:54;;;;;;;3.45;1.22;;;;;;;16.12;43.21;99494.05;1751888;81;21069;-42
2021/05/12 11:09:25;;;;;;;2.15;0.95;;;;;;;16.06;43.19;99493.67;1710756;83;21000;-42
2021/05/12 11:11:55;;;;;;;2.70;1.00;;;;;;;16.00;43.60;99492.49;1748765;81;21860;-42
2021/05/12 11:14:31;;;;;;;5.05;1.37;;;;;;;15.98;43.42;99481.94;1748733;81;28141;-42
2021/05/12 11:17:17;;;;;;;4.70;1.20;;;;;;;15.93;42.63;99472.77;1743237;81;21063;-42
2021/05/12 11:19:57;;;;;;;3.17;1.22;;;;;;;15.97;43.88;99473.56;1739092;82;21073;-42
2021/05/12 11:22:37;;;;;;;4.65;1.42;;;;;;;15.98;42.52;99475.69;1753061;81;21042;-42
2021/05/12 11:25:24;;;;;;;2.27;1.10;;;;;;;15.91;42.30;99468.29;1711715;81;21020;-42
2021/05/12 11:33:29;;;;;;;2.70;1.10;;;;;;;15.95;42.97;99469.64;1667743;85;21013;-42
2021/05/12 11:36:01;;;;;;;2.35;0.98;;;;;;;16.07;42.06;99463.78;1654733;85;21132;-42
2021/05/12 11:38:27;;;;;;;1.42;0.98;;;;;;;16.31;41.93;99453.96;1697703;81;21046;-42
2021/05/12 11:41:15;;;;;;;7.08;1.32;;;;;;;16.62;41.36;99451.72;1740134;81;21747;-42
2021/05/12 11:43:45;;;;;;;3.55;0.78;;;;;;;16.98;41.71;99447.45;1745298;81;21082;-42
2021/05/12 11:46:24;;;;;;;;;;;;;;;17.35;40.21;99438.78;1741819;81;21010;-42
2021/05/12 11:48:56;;;;;;;2.10;0.90;;;;;;;17.58;38.58;99438.20;1738911;81;20243;-42
2021/05/12 11:51:39;;;;;;;6.00;0.90;;;;;;;17.53;39.03;99441.38;1738148;81;21019;-42
2021/05/12 11:54:22;;;;;;;6.10;1.10;;;;;;;17.48;39.66;99438.28;1737021;81;21062;-42
2021/05/12 11:56:55;;;;;;;3.40;0.90;;;;;;;17.36;39.45;99423.13;1751381;81;20975;-42
2021/05/12 11:59:26;;;;;;;4.08;1.00;;;;;;;17.22;39.79;99416.38;1742245;80;21236;-42